sensor_id;sensor_type;location;lat;lon;timestamp;P1;durP1;ratioP1;P2;durP2;ratioP2
34978;SDS011;21185;50.978;13.720;2023-11-21T00:03:02;1.45;;;0.82;;
34978;SDS011;21185;50.978;13.720;2023-11-21T00:08:06;2.22;;;1.10;;
34978;SDS011;21185;50.978;13.720;2023-11-21T00:13:08;1.25;;;0.85;;
34978;SDS011;21185;50.978;13.720;2023-11-21T00:18:11;2.67;;;1.20;;
34978;SDS011;21185;50.978;13.720;2023-11-21T00:23:13;1.48;;;0.90;;
34978;SDS011;21185;50.978;13.720;2023-11-21T00:28:15;2.78;;;0.95;;
34978;SDS011;21185;50.978;13.720;2023-11-21T00:33:18;1.52;;;1.00;;
34978;SDS011;21185;50.978;13.720;2023-11-21T00:38:20;1.45;;;0.85;;
34978;SDS011;21185;50.978;13.720;2023-11-21T00:43:22;3.97;;;0.90;;
34978;SDS011;21185;50.978;13.720;2023-11-21T00:48:25;1.40;;;0.93;;
34978;SDS011;21185;50.978;13.720;2023-11-21T00:53:27;2.38;;;1.63;;
34978;SDS011;21185;50.978;13.720;2023-11-21T00:58:29;1.10;;;1.00;;
34978;SDS011;21185;50.978;13.720;2023-11-21T01:03:32;5.32;;;1.05;;
34978;SDS011;21185;50.978;13.720;2023-11-21T01:08:34;2.92;;;1.08;;
34978;SDS011;21185;50.978;13.720;2023-11-21T01:13:49;2.00;;;1.40;;
34978;SDS011;21185;50.978;13.720;2023-11-21T01:18:51;6.82;;;1.73;;
34978;SDS011;21185;50.978;13.720;2023-11-21T01:23:53;2.28;;;1.15;;
34978;SDS011;21185;50.978;13.720;2023-11-21T01:28:57;4.22;;;1.30;;
34978;SDS011;21185;50.978;13.720;2023-11-21T01:33:59;2.00;;;1.45;;
34978;SDS011;21185;50.978;13.720;2023-11-21T01:39:02;3.78;;;2.55;;
34978;SDS011;21185;50.978;13.720;2023-11-21T01:44:09;4.78;;;1.00;;
34978;SDS011;21185;50.978;13.720;2023-11-21T01:49:15;2.53;;;1.27;;
34978;SDS011;21185;50.978;13.720;2023-11-21T01:54:19;5.07;;;2.38;;
34978;SDS011;21185;50.978;13.720;2023-11-21T01:59:22;7.22;;;1.45;;
34978;SDS011;21185;50.978;13.720;2023-11-21T02:04:25;7.05;;;1.02;;
34978;SDS011;21185;50.978;13.720;2023-11-21T02:09:28;4.65;;;0.98;;
34978;SDS011;21185;50.978;13.720;2023-11-21T02:14:34;4.37;;;1.33;;
34978;SDS011;21185;50.978;13.720;2023-11-21T02:19:36;1.80;;;0.75;;
34978;SDS011;21185;50.978;13.720;2023-11-21T02:24:40;2.97;;;0.90;;
34978;SDS011;21185;50.978;13.720;2023-11-21T02:29:44;3.10;;;1.10;;
34978;SDS011;21185;50.978;13.720;2023-11-21T02:34:46;5.40;;;1.45;;
34978;SDS011;21185;50.978;13.720;2023-11-21T02:39:48;6.72;;;1.13;;
34978;SDS011;21185;50.978;13.720;2023-11-21T02:44:50;2.45;;;0.90;;
34978;SDS011;21185;50.978;13.720;2023-11-21T02:49:52;8.48;;;1.02;;
34978;SDS011;21185;50.978;13.720;2023-11-21T02:54:54;3.13;;;0.77;;
34978;SDS011;21185;50.978;13.720;2023-11-21T02:59:56;9.48;;;1.13;;
34978;SDS011;21185;50.978;13.720;2023-11-21T03:04:58;2.30;;;1.15;;
34978;SDS011;21185;50.978;13.720;2023-11-21T03:10:00;4.35;;;1.30;;
34978;SDS011;21185;50.978;13.720;2023-11-21T03:15:03;0.93;;;0.68;;
34978;SDS011;21185;50.978;13.720;2023-11-21T03:20:07;2.85;;;1.00;;
34978;SDS011;21185;50.978;13.720;2023-11-21T03:25:13;18.27;;;2.13;;
34978;SDS011;21185;50.978;13.720;2023-11-21T03:30:19;4.50;;;1.08;;
34978;SDS011;21185;50.978;13.720;2023-11-21T03:35:22;2.13;;;0.82;;
34978;SDS011;21185;50.978;13.720;2023-11-21T03:40:26;4.72;;;1.20;;
34978;SDS011;21185;50.978;13.720;2023-11-21T03:45:29;2.03;;;1.08;;
34978;SDS011;21185;50.978;13.720;2023-11-21T03:50:31;2.33;;;0.93;;
34978;SDS011;21185;50.978;13.720;2023-11-21T03:55:33;3.33;;;1.98;;
34978;SDS011;21185;50.978;13.720;2023-11-21T04:00:35;3.83;;;1.13;;
34978;SDS011;21185;50.978;13.720;2023-11-21T04:05:37;2.20;;;1.67;;
34978;SDS011;21185;50.978;13.720;2023-11-21T04:10:39;6.20;;;1.35;;
34978;SDS011;21185;50.978;13.720;2023-11-21T04:15:42;3.30;;;1.45;;
34978;SDS011;21185;50.978;13.720;2023-11-21T04:20:44;3.25;;;1.23;;
34978;SDS011;21185;50.978;13.720;2023-11-21T04:25:46;1.45;;;1.10;;
34978;SDS011;21185;50.978;13.720;2023-11-21T04:30:48;4.40;;;1.38;;
34978;SDS011;21185;50.978;13.720;2023-11-21T04:35:51;5.95;;;1.30;;
34978;SDS011;21185;50.978;13.720;2023-11-21T04:40:53;4.97;;;1.73;;
34978;SDS011;21185;50.978;13.720;2023-11-21T04:45:55;3.53;;;1.48;;
34978;SDS011;21185;50.978;13.720;2023-11-21T04:50:58;6.53;;;1.27;;
34978;SDS011;21185;50.978;13.720;2023-11-21T04:56:00;5.38;;;1.40;;
34978;SDS011;21185;50.978;13.720;2023-11-21T05:01:02;8.13;;;1.80;;
34978;SDS011;21185;50.978;13.720;2023-11-21T05:06:09;4.80;;;1.70;;
34978;SDS011;21185;50.978;13.720;2023-11-21T05:11:12;4.28;;;1.38;;
34978;SDS011;21185;50.978;13.720;2023-11-21T05:16:26;4.05;;;1.35;;
34978;SDS011;21185;50.978;13.720;2023-11-21T05:21:31;11.35;;;2.13;;
34978;SDS011;21185;50.978;13.720;2023-11-21T05:26:34;6.60;;;1.20;;
34978;SDS011;21185;50.978;13.720;2023-11-21T05:31:36;3.75;;;1.90;;
34978;SDS011;21185;50.978;13.720;2023-11-21T05:36:42;3.67;;;1.65;;
34978;SDS011;21185;50.978;13.720;2023-11-21T05:41:47;3.13;;;2.03;;
34978;SDS011;21185;50.978;13.720;2023-11-21T05:46:51;2.75;;;1.70;;
34978;SDS011;21185;50.978;13.720;2023-11-21T05:51:54;4.13;;;2.15;;
34978;SDS011;21185;50.978;13.720;2023-11-21T05:56:56;3.67;;;1.58;;
34978;SDS011;21185;50.978;13.720;2023-11-21T06:07:07;7.72;;;2.05;;
34978;SDS011;21185;50.978;13.720;2023-11-21T06:12:09;7.60;;;1.73;;
34978;SDS011;21185;50.978;13.720;2023-11-21T06:17:11;11.88;;;2.10;;
34978;SDS011;21185;50.978;13.720;2023-11-21T06:22:13;3.67;;;1.77;;
34978;SDS011;21185;50.978;13.720;2023-11-21T06:27:16;7.43;;;1.95;;
34978;SDS011;21185;50.978;13.720;2023-11-21T06:32:18;5.70;;;2.55;;
34978;SDS011;21185;50.978;13.720;2023-11-21T06:37:22;5.00;;;1.85;;
34978;SDS011;21185;50.978;13.720;2023-11-21T06:42:25;8.65;;;2.25;;
34978;SDS011;21185;50.978;13.720;2023-11-21T06:52:58;3.00;;;1.92;;
34978;SDS011;21185;50.978;13.720;2023-11-21T06:58:00;4.90;;;2.22;;
34978;SDS011;21185;50.978;13.720;2023-11-21T07:03:02;5.60;;;2.22;;
34978;SDS011;21185;50.978;13.720;2023-11-21T07:08:05;9.88;;;2.67;;
34978;SDS011;21185;50.978;13.720;2023-11-21T07:13:09;10.65;;;2.20;;
34978;SDS011;21185;50.978;13.720;2023-11-21T07:18:14;8.20;;;2.22;;
34978;SDS011;21185;50.978;13.720;2023-11-21T07:23:16;8.63;;;3.10;;
34978;SDS011;21185;50.978;13.720;2023-11-21T07:28:19;7.85;;;2.47;;
34978;SDS011;21185;50.978;13.720;2023-11-21T07:33:21;5.93;;;2.17;;
34978;SDS011;21185;50.978;13.720;2023-11-21T07:49:04;6.90;;;3.03;;
34978;SDS011;21185;50.978;13.720;2023-11-21T07:54:06;3.92;;;2.45;;
34978;SDS011;21185;50.978;13.720;2023-11-21T07:59:11;8.18;;;2.45;;
34978;SDS011;21185;50.978;13.720;2023-11-21T08:04:14;4.50;;;2.38;;
34978;SDS011;21185;50.978;13.720;2023-11-21T08:09:16;14.20;;;4.78;;
34978;SDS011;21185;50.978;13.720;2023-11-21T08:14:20;12.52;;;3.47;;
34978;SDS011;21185;50.978;13.720;2023-11-21T08:19:23;7.32;;;3.47;;
34978;SDS011;21185;50.978;13.720;2023-11-21T08:24:29;8.55;;;3.40;;
34978;SDS011;21185;50.978;13.720;2023-11-21T08:29:31;8.20;;;3.22;;
34978;SDS011;21185;50.978;13.720;2023-11-21T08:34:43;11.18;;;3.95;;
34978;SDS011;21185;50.978;13.720;2023-11-21T08:39:49;7.50;;;3.65;;
34978;SDS011;21185;50.978;13.720;2023-11-21T08:44:51;6.03;;;3.08;;
34978;SDS011;21185;50.978;13.720;2023-11-21T08:49:54;7.15;;;3.08;;
34978;SDS011;21185;50.978;13.720;2023-11-21T08:54:56;11.82;;;4.10;;
34978;SDS011;21185;50.978;13.720;2023-11-21T09:00:01;6.97;;;3.03;;
34978;SDS011;21185;50.978;13.720;2023-11-21T09:05:05;11.45;;;2.65;;
34978;SDS011;21185;50.978;13.720;2023-11-21T09:10:10;6.70;;;2.70;;
34978;SDS011;21185;50.978;13.720;2023-11-21T09:15:12;6.45;;;3.15;;
34978;SDS011;21185;50.978;13.720;2023-11-21T09:20:16;6.30;;;3.00;;
34978;SDS011;21185;50.978;13.720;2023-11-21T09:25:19;9.15;;;2.88;;
34978;SDS011;21185;50.978;13.720;2023-11-21T09:30:23;4.40;;;2.33;;
34978;SDS011;21185;50.978;13.720;2023-11-21T09:35:26;5.13;;;3.10;;
34978;SDS011;21185;50.978;13.720;2023-11-21T09:40:30;7.60;;;3.88;;
34978;SDS011;21185;50.978;13.720;2023-11-21T09:45:36;5.22;;;2.22;;
34978;SDS011;21185;50.978;13.720;2023-11-21T09:50:43;8.15;;;3.40;;
34978;SDS011;21185;50.978;13.720;2023-11-21T09:55:53;6.28;;;2.60;;
34978;SDS011;21185;50.978;13.720;2023-11-21T10:00:57;5.50;;;3.00;;
34978;SDS011;21185;50.978;13.720;2023-11-21T10:06:01;5.13;;;2.58;;
34978;SDS011;21185;50.978;13.720;2023-11-21T10:11:08;5.45;;;1.80;;
34978;SDS011;21185;50.978;13.720;2023-11-21T10:16:14;4.22;;;2.35;;
34978;SDS011;21185;50.978;13.720;2023-11-21T10:21:23;2.72;;;1.50;;
34978;SDS011;21185;50.978;13.720;2023-11-21T10:26:27;2.55;;;1.58;;
34978;SDS011;21185;50.978;13.720;2023-11-21T10:31:32;2.30;;;1.40;;
34978;SDS011;21185;50.978;13.720;2023-11-21T10:36:36;2.83;;;1.65;;
34978;SDS011;21185;50.978;13.720;2023-11-21T10:41:39;6.70;;;2.50;;
34978;SDS011;21185;50.978;13.720;2023-11-21T10:46:42;4.38;;;2.08;;
34978;SDS011;21185;50.978;13.720;2023-11-21T10:51:46;6.45;;;2.63;;
34978;SDS011;21185;50.978;13.720;2023-11-21T10:56:53;27.17;;;3.63;;
34978;SDS011;21185;50.978;13.720;2023-11-21T11:01:58;7.93;;;2.83;;
34978;SDS011;21185;50.978;13.720;2023-11-21T11:07:06;7.40;;;3.45;;
34978;SDS011;21185;50.978;13.720;2023-11-21T11:12:14;47.22;;;6.43;;
34978;SDS011;21185;50.978;13.720;2023-11-21T11:17:16;46.72;;;5.15;;
34978;SDS011;21185;50.978;13.720;2023-11-21T11:22:40;7.97;;;3.53;;
34978;SDS011;21185;50.978;13.720;2023-11-21T11:27:57;7.85;;;3.90;;
34978;SDS011;21185;50.978;13.720;2023-11-21T11:33:27;8.73;;;4.30;;
34978;SDS011;21185;50.978;13.720;2023-11-21T11:38:38;7.13;;;3.30;;
34978;SDS011;21185;50.978;13.720;2023-11-21T11:43:47;6.65;;;3.60;;
34978;SDS011;21185;50.978;13.720;2023-11-21T11:48:55;7.18;;;3.13;;
34978;SDS011;21185;50.978;13.720;2023-11-21T11:54:05;5.15;;;2.95;;
34978;SDS011;21185;50.978;13.720;2023-11-21T11:59:08;8.57;;;4.03;;
34978;SDS011;21185;50.978;13.720;2023-11-21T12:09:19;10.35;;;4.85;;
34978;SDS011;21185;50.978;13.720;2023-11-21T12:14:23;15.07;;;5.32;;
34978;SDS011;21185;50.978;13.720;2023-11-21T12:19:25;10.82;;;4.97;;
34978;SDS011;21185;50.978;13.720;2023-11-21T12:24:28;10.70;;;4.88;;
34978;SDS011;21185;50.978;13.720;2023-11-21T12:29:31;9.18;;;4.68;;
34978;SDS011;21185;50.978;13.720;2023-11-21T12:34:35;11.63;;;5.45;;
34978;SDS011;21185;50.978;13.720;2023-11-21T12:39:37;9.05;;;4.30;;
34978;SDS011;21185;50.978;13.720;2023-11-21T12:44:40;12.30;;;5.85;;
34978;SDS011;21185;50.978;13.720;2023-11-21T12:49:43;10.30;;;5.70;;
34978;SDS011;21185;50.978;13.720;2023-11-21T12:54:46;14.93;;;5.25;;
34978;SDS011;21185;50.978;13.720;2023-11-21T12:59:50;12.48;;;5.78;;
34978;SDS011;21185;50.978;13.720;2023-11-21T13:04:56;8.90;;;4.15;;
34978;SDS011;21185;50.978;13.720;2023-11-21T13:10:00;11.82;;;4.55;;
34978;SDS011;21185;50.978;13.720;2023-11-21T13:15:10;8.25;;;4.13;;
34978;SDS011;21185;50.978;13.720;2023-11-21T13:20:20;7.45;;;3.83;;
34978;SDS011;21185;50.978;13.720;2023-11-21T13:25:22;9.88;;;4.22;;
34978;SDS011;21185;50.978;13.720;2023-11-21T13:30:25;8.50;;;5.18;;
34978;SDS011;21185;50.978;13.720;2023-11-21T13:35:42;9.27;;;4.10;;
34978;SDS011;21185;50.978;13.720;2023-11-21T13:40:50;5.18;;;3.05;;
34978;SDS011;21185;50.978;13.720;2023-11-21T13:45:55;5.05;;;2.35;;
34978;SDS011;21185;50.978;13.720;2023-11-21T13:51:04;8.98;;;4.25;;
34978;SDS011;21185;50.978;13.720;2023-11-21T13:56:19;8.82;;;4.53;;
34978;SDS011;21185;50.978;13.720;2023-11-21T14:01:26;8.00;;;4.07;;
34978;SDS011;21185;50.978;13.720;2023-11-21T14:06:32;11.95;;;5.30;;
34978;SDS011;21185;50.978;13.720;2023-11-21T14:11:41;10.32;;;4.75;;
34978;SDS011;21185;50.978;13.720;2023-11-21T14:16:49;10.30;;;5.05;;
34978;SDS011;21185;50.978;13.720;2023-11-21T14:21:51;9.15;;;4.65;;
34978;SDS011;21185;50.978;13.720;2023-11-21T14:26:54;12.07;;;4.57;;
34978;SDS011;21185;50.978;13.720;2023-11-21T14:31:56;8.70;;;4.07;;
34978;SDS011;21185;50.978;13.720;2023-11-21T14:36:59;4.93;;;2.65;;
34978;SDS011;21185;50.978;13.720;2023-11-21T14:42:04;6.70;;;3.25;;
34978;SDS011;21185;50.978;13.720;2023-11-21T14:47:09;6.53;;;3.63;;
34978;SDS011;21185;50.978;13.720;2023-11-21T14:52:17;6.68;;;3.05;;
34978;SDS011;21185;50.978;13.720;2023-11-21T14:57:37;10.35;;;4.35;;
34978;SDS011;21185;50.978;13.720;2023-11-21T15:02:39;11.50;;;5.95;;
34978;SDS011;21185;50.978;13.720;2023-11-21T15:07:51;4.72;;;2.70;;
34978;SDS011;21185;50.978;13.720;2023-11-21T15:12:57;13.20;;;7.45;;
34978;SDS011;21185;50.978;13.720;2023-11-21T15:17:59;6.07;;;3.08;;
34978;SDS011;21185;50.978;13.720;2023-11-21T15:23:01;8.88;;;3.70;;
34978;SDS011;21185;50.978;13.720;2023-11-21T15:28:05;11.98;;;4.93;;
34978;SDS011;21185;50.978;13.720;2023-11-21T15:33:07;8.57;;;3.67;;
34978;SDS011;21185;50.978;13.720;2023-11-21T15:38:11;13.13;;;4.53;;
34978;SDS011;21185;50.978;13.720;2023-11-21T15:43:15;6.07;;;3.67;;
34978;SDS011;21185;50.978;13.720;2023-11-21T15:48:17;7.13;;;3.85;;
34978;SDS011;21185;50.978;13.720;2023-11-21T15:53:19;9.65;;;4.07;;
34978;SDS011;21185;50.978;13.720;2023-11-21T15:58:22;6.38;;;3.25;;
34978;SDS011;21185;50.978;13.720;2023-11-21T16:03:24;6.13;;;3.28;;
34978;SDS011;21185;50.978;13.720;2023-11-21T16:08:27;6.22;;;3.55;;
34978;SDS011;21185;50.978;13.720;2023-11-21T16:13:29;7.70;;;3.85;;
34978;SDS011;21185;50.978;13.720;2023-11-21T16:18:31;7.85;;;3.55;;
34978;SDS011;21185;50.978;13.720;2023-11-21T16:23:34;8.18;;;4.40;;
34978;SDS011;21185;50.978;13.720;2023-11-21T16:28:36;6.18;;;3.35;;
34978;SDS011;21185;50.978;13.720;2023-11-21T16:33:38;4.43;;;2.70;;
34978;SDS011;21185;50.978;13.720;2023-11-21T16:38:41;4.50;;;2.90;;
34978;SDS011;21185;50.978;13.720;2023-11-21T16:43:43;7.40;;;3.70;;
34978;SDS011;21185;50.978;13.720;2023-11-21T16:48:46;4.72;;;3.03;;
34978;SDS011;21185;50.978;13.720;2023-11-21T16:53:47;5.65;;;2.92;;
34978;SDS011;21185;50.978;13.720;2023-11-21T16:58:50;6.35;;;2.30;;
34978;SDS011;21185;50.978;13.720;2023-11-21T17:03:52;5.82;;;3.95;;
34978;SDS011;21185;50.978;13.720;2023-11-21T17:08:54;5.82;;;2.60;;
34978;SDS011;21185;50.978;13.720;2023-11-21T17:14:02;4.32;;;2.70;;
34978;SDS011;21185;50.978;13.720;2023-11-21T17:19:06;6.60;;;2.10;;
34978;SDS011;21185;50.978;13.720;2023-11-21T17:24:08;10.43;;;2.35;;
34978;SDS011;21185;50.978;13.720;2023-11-21T17:29:11;2.22;;;1.58;;
34978;SDS011;21185;50.978;13.720;2023-11-21T17:34:15;1.20;;;1.10;;
34978;SDS011;21185;50.978;13.720;2023-11-21T17:39:21;4.90;;;1.48;;
34978;SDS011;21185;50.978;13.720;2023-11-21T17:44:23;2.60;;;2.17;;
34978;SDS011;21185;50.978;13.720;2023-11-21T17:54:33;2.42;;;1.70;;
34978;SDS011;21185;50.978;13.720;2023-11-21T17:59:38;6.88;;;2.50;;
34978;SDS011;21185;50.978;13.720;2023-11-21T18:04:44;6.30;;;2.40;;
34978;SDS011;21185;50.978;13.720;2023-11-21T18:09:47;5.07;;;3.40;;
34978;SDS011;21185;50.978;13.720;2023-11-21T18:14:51;2.05;;;1.60;;
34978;SDS011;21185;50.978;13.720;2023-11-21T18:19:53;2.90;;;2.25;;
34978;SDS011;21185;50.978;13.720;2023-11-21T18:24:58;2.63;;;1.98;;
34978;SDS011;21185;50.978;13.720;2023-11-21T18:30:01;3.55;;;2.10;;
34978;SDS011;21185;50.978;13.720;2023-11-21T18:35:04;3.13;;;1.90;;
34978;SDS011;21185;50.978;13.720;2023-11-21T18:40:07;3.92;;;2.13;;
34978;SDS011;21185;50.978;13.720;2023-11-21T18:45:10;3.17;;;2.10;;
34978;SDS011;21185;50.978;13.720;2023-11-21T18:50:14;3.50;;;2.05;;
34978;SDS011;21185;50.978;13.720;2023-11-21T18:55:19;3.03;;;2.20;;
34978;SDS011;21185;50.978;13.720;2023-11-21T19:00:21;3.22;;;1.80;;
34978;SDS011;21185;50.978;13.720;2023-11-21T19:05:23;3.42;;;2.30;;
34978;SDS011;21185;50.978;13.720;2023-11-21T19:10:25;4.00;;;2.03;;
34978;SDS011;21185;50.978;13.720;2023-11-21T19:15:31;1.80;;;1.52;;
34978;SDS011;21185;50.978;13.720;2023-11-21T19:20:33;3.38;;;2.13;;
34978;SDS011;21185;50.978;13.720;2023-11-21T19:25:35;4.18;;;2.15;;
34978;SDS011;21185;50.978;13.720;2023-11-21T19:30:37;2.45;;;2.00;;
34978;SDS011;21185;50.978;13.720;2023-11-21T19:35:42;1.95;;;1.60;;
34978;SDS011;21185;50.978;13.720;2023-11-21T19:40:44;2.72;;;1.70;;
34978;SDS011;21185;50.978;13.720;2023-11-21T19:45:46;1.88;;;1.20;;
34978;SDS011;21185;50.978;13.720;2023-11-21T19:50:48;3.05;;;1.52;;
34978;SDS011;21185;50.978;13.720;2023-11-21T19:55:51;3.20;;;2.17;;
34978;SDS011;21185;50.978;13.720;2023-11-21T20:00:53;1.80;;;1.60;;
34978;SDS011;21185;50.978;13.720;2023-11-21T20:05:55;3.30;;;1.88;;
34978;SDS011;21185;50.978;13.720;2023-11-21T20:10:57;3.05;;;1.52;;
34978;SDS011;21185;50.978;13.720;2023-11-21T20:15:59;9.65;;;3.50;;
34978;SDS011;21185;50.978;13.720;2023-11-21T20:21:02;2.42;;;1.83;;
34978;SDS011;21185;50.978;13.720;2023-11-21T20:26:05;3.33;;;2.20;;
34978;SDS011;21185;50.978;13.720;2023-11-21T20:31:07;2.72;;;1.95;;
34978;SDS011;21185;50.978;13.720;2023-11-21T20:36:09;4.13;;;2.10;;
34978;SDS011;21185;50.978;13.720;2023-11-21T20:41:11;2.08;;;1.80;;
34978;SDS011;21185;50.978;13.720;2023-11-21T20:46:16;6.75;;;2.00;;
34978;SDS011;21185;50.978;13.720;2023-11-21T20:51:18;2.47;;;1.88;;
34978;SDS011;21185;50.978;13.720;2023-11-21T20:56:20;2.90;;;2.10;;
34978;SDS011;21185;50.978;13.720;2023-11-21T21:01:23;2.80;;;1.95;;
34978;SDS011;21185;50.978;13.720;2023-11-21T21:06:25;2.38;;;1.83;;
34978;SDS011;21185;50.978;13.720;2023-11-21T21:11:27;3.25;;;1.92;;
34978;SDS011;21185;50.978;13.720;2023-11-21T21:16:33;2.55;;;2.17;;
34978;SDS011;21185;50.978;13.720;2023-11-21T21:21:42;3.25;;;2.17;;
34978;SDS011;21185;50.978;13.720;2023-11-21T21:26:46;4.72;;;2.50;;
34978;SDS011;21185;50.978;13.720;2023-11-21T21:31:48;3.38;;;2.28;;
34978;SDS011;21185;50.978;13.720;2023-11-21T21:36:51;4.35;;;2.58;;
34978;SDS011;21185;50.978;13.720;2023-11-21T21:41:53;6.10;;;3.10;;
34978;SDS011;21185;50.978;13.720;2023-11-21T21:46:55;5.38;;;3.22;;
34978;SDS011;21185;50.978;13.720;2023-11-21T21:52:01;6.43;;;3.88;;
34978;SDS011;21185;50.978;13.720;2023-11-21T21:57:03;8.20;;;4.25;;
34978;SDS011;21185;50.978;13.720;2023-11-21T22:02:07;6.47;;;3.42;;
34978;SDS011;21185;50.978;13.720;2023-11-21T22:07:09;5.15;;;3.40;;
34978;SDS011;21185;50.978;13.720;2023-11-21T22:12:11;6.47;;;4.38;;
34978;SDS011;21185;50.978;13.720;2023-11-21T22:17:13;6.05;;;4.38;;
34978;SDS011;21185;50.978;13.720;2023-11-21T22:22:17;7.47;;;4.50;;
34978;SDS011;21185;50.978;13.720;2023-11-21T22:27:19;8.57;;;5.15;;
34978;SDS011;21185;50.978;13.720;2023-11-21T22:32:22;10.93;;;4.63;;
34978;SDS011;21185;50.978;13.720;2023-11-21T22:37:24;6.03;;;4.40;;
34978;SDS011;21185;50.978;13.720;2023-11-21T22:42:26;7.40;;;4.28;;
34978;SDS011;21185;50.978;13.720;2023-11-21T22:47:28;8.60;;;5.05;;
34978;SDS011;21185;50.978;13.720;2023-11-21T22:52:30;6.35;;;4.57;;
34978;SDS011;21185;50.978;13.720;2023-11-21T22:57:33;12.32;;;4.60;;
34978;SDS011;21185;50.978;13.720;2023-11-21T23:02:37;8.38;;;5.47;;
34978;SDS011;21185;50.978;13.720;2023-11-21T23:07:41;9.25;;;5.13;;
34978;SDS011;21185;50.978;13.720;2023-11-21T23:12:44;8.13;;;5.10;;
34978;SDS011;21185;50.978;13.720;2023-11-21T23:17:46;8.45;;;5.13;;
34978;SDS011;21185;50.978;13.720;2023-11-21T23:22:48;11.35;;;6.07;;
34978;SDS011;21185;50.978;13.720;2023-11-21T23:27:51;9.40;;;6.03;;
34978;SDS011;21185;50.978;13.720;2023-11-21T23:32:54;9.80;;;5.38;;
34978;SDS011;21185;50.978;13.720;2023-11-21T23:37:56;8.35;;;4.72;;
34978;SDS011;21185;50.978;13.720;2023-11-21T23:42:58;7.90;;;4.90;;
34978;SDS011;21185;50.978;13.720;2023-11-21T23:48:00;10.15;;;5.35;;
34978;SDS011;21185;50.978;13.720;2023-11-21T23:53:03;10.45;;;5.57;;
34978;SDS011;21185;50.978;13.720;2023-11-21T23:58:07;8.15;;;5.90;;
